KBMI

Central Illinois Regional at Bloomington-Normal Airport

Bloomington/Normal, Illinois, USA
KBMI 162321Z 1700/1724 VRB04KT P6SM OVC015 FM170600 11006KT P6SM -FZDZ OVC008 FM170900 11005KT 2SM -SN BR OVC005 FM171800 VRB04KT 5SM BR OVC003
Issued Valid From Valid To
Jan-16 @ 23:21 UTC
(6 hours ago)
Jan-17 @ 00:00 UTC
(6 hours ago)
Jan-18 @ 00:00 UTC
(in 18 hours)
Jan-17 @ 00:00 to Jan-17 @ 06:00
KBMI 162321Z 1700/1724 VRB04KT P6SM OVC015
Wind Visibility Clouds
Variable at 4 knots Greater than 6 miles
  • Overcast at 1,500' AGL
From Jan-17 @ 06:00 to Jan-17 @ 09:00
FM170600 11006KT P6SM -FZDZ OVC008
Wind Visibility Clouds Conditions
110° at 6 knots Greater than 6 miles
  • Overcast at 800' AGL
  • Light Freezing
  • Light Drizzle
From Jan-17 @ 09:00 to Jan-17 @ 18:00
FM170900 11005KT 2SM -SN BR OVC005
Wind Visibility Clouds Conditions
110° at 5 knots 2 miles
  • Overcast at 500' AGL
  • Light Snow
  • Mist
From Jan-17 @ 18:00 to Jan-18 @ 00:00
FM171800 VRB04KT 5SM BR OVC003
Wind Visibility Clouds Conditions
Variable at 4 knots 5 miles
  • Overcast at 300' AGL
  • Mist
KBMI 162321Z 1700/1724 VRB04KT P6SM OVC015 FM170600 11006KT P6SM -FZDZ OVC008 FM170900 11005KT 2SM -SN BR OVC005 FM171800 VRB04KT 5SM BR OVC003
Issued Jan-16 @ 23:21 UTC
(6 hours ago)
Valid From Jan-17 @ 00:00 UTC
(6 hours ago)
Valid To Jan-18 @ 00:00 UTC
(in 18 hours)
Jan-17 @ 00:00 - Jan-17 @ 06:00
Wind Visibility
Variable at 4 knots Greater than 6 miles
Clouds
  • Overcast at 1,500' AGL
From Jan-17 @ 06:00 - Jan-17 @ 09:00
Wind Visibility
110° at 6 knots Greater than 6 miles
Clouds
  • Overcast at 800' AGL
Conditions
  • Light Freezing
  • Light Drizzle
From Jan-17 @ 09:00 - Jan-17 @ 18:00
Wind Visibility
110° at 5 knots 2 miles
Clouds
  • Overcast at 500' AGL
Conditions
  • Light Snow
  • Mist
From Jan-17 @ 18:00 - Jan-18 @ 00:00
Wind Visibility
Variable at 4 knots 5 miles
Clouds
  • Overcast at 300' AGL
Conditions
  • Mist